Lamadrid, Argentina
Current Conditions -  °F | °C
As of 10:00 PM on Saturday 20 Dec 2014 (Local Time) from SANT Reporting Station
Scattered Clouds Scattered Clouds  
Wind Chill: 77°   Ceiling: Unl
Heat Index: 79°   Visibility: 6mi
Dew Point: 68°   Wind: 20mph
Humidity: 74%   Direction: 180°S
Pressure: 29.53"   Gusts: NA
Location:  27.63°S, 65.25°W
Report Text: SANT 210100Z 18017KT 9000 SCT035 FEW050CB25/20 Q1000
Loading
Personal Weather Stations






























Interactive Weather Map New forecast layout! Learn more

10-Day Weather Forecast

Advertisements
Track Severe Weather on mobile